Time;durP1;ratioP1;P1;durP2;ratioP2;P2;SDS_P1;SDS_P2;PMS_P1;PMS_P2;Temp;Humidity;BMP_temperature;BMP_pressure;BME280_temperature;BME280_humidity;BME280_pressure;Samples;Min_cycle;Max_cycle;Signal;HPM_P1;HPM_P2
2021/05/18 00:00:30;;;;;;;12.73;6.13;;;11.50;99.90;;;;;;5017871;28;20444;-72
2021/05/18 00:02:56;;;;;;;13.43;7.97;;;11.50;99.90;;;;;;5019987;28;20473;-72
2021/05/18 00:05:24;;;;;;;11.17;7.20;;;11.50;99.90;;;;;;5031069;28;20465;-72
2021/05/18 00:07:59;;;;;;;11.67;7.67;;;11.40;99.90;;;;;;5016828;28;20532;-72
2021/05/18 00:13:14;;;;;;;10.30;7.10;;;11.30;99.90;;;;;;5019594;28;20828;-72
2021/05/18 00:15:41;;;;;;;10.40;7.40;;;11.30;99.90;;;;;;5021006;28;20437;-72
2021/05/18 00:18:07;;;;;;;12.10;7.50;;;11.30;99.90;;;;;;5014912;28;20437;-72
2021/05/18 00:20:35;;;;;;;11.60;6.80;;;11.30;99.90;;;;;;5021429;28;21002;-72
2021/05/18 00:23:04;;;;;;;11.07;7.43;;;11.20;99.90;;;;;;5017113;28;20653;-72
2021/05/18 00:25:31;;;;;;;12.17;7.30;;;11.10;99.90;;;;;;5020964;28;20429;-72
2021/05/18 00:27:57;;;;;;;13.83;7.63;;;11.10;99.90;;;;;;5018110;28;20785;-72
2021/05/18 00:30:24;;;;;;;10.73;7.57;;;11.10;99.90;;;;;;5022758;28;20464;-72
2021/05/18 00:32:50;;;;;;;16.27;8.20;;;11.00;99.90;;;;;;5018982;28;20443;-71
2021/05/18 00:35:16;;;;;;;17.10;8.50;;;11.00;99.90;;;;;;5015314;28;21118;-72
2021/05/18 00:37:42;;;;;;;13.63;7.40;;;11.00;99.90;;;;;;5018765;28;20441;-72
2021/05/18 00:40:13;;;;;;;16.07;8.67;;;11.00;99.90;;;;;;5016205;28;20438;-72
2021/05/18 00:42:45;;;;;;;14.10;7.80;;;10.90;99.90;;;;;;5021567;28;20425;-72
2021/05/18 00:45:11;;;;;;;10.20;8.10;;;10.90;99.90;;;;;;5017305;28;20508;-72
2021/05/18 00:47:36;;;;;;;12.50;7.80;;;10.80;99.90;;;;;;5017560;28;20462;-72
2021/05/18 00:50:03;;;;;;;15.87;8.57;;;10.80;99.90;;;;;;5017670;28;20794;-72
2021/05/18 00:52:29;;;;;;;14.70;8.20;;;10.60;99.90;;;;;;5017520;28;20185;-72
2021/05/18 00:54:57;;;;;;;15.53;7.77;;;10.60;99.90;;;;;;5014418;28;20440;-72
2021/05/18 01:00:08;;;;;;;13.13;7.57;;;10.60;99.90;;;;;;5019087;28;20507;-72
2021/05/18 01:02:34;;;;;;;14.20;7.77;;;10.50;99.90;;;;;;5019071;28;20444;-72
2021/05/18 01:05:19;;;;;;;12.10;7.77;;;10.50;99.90;;;;;;5017996;28;20433;-72
2021/05/18 01:07:49;;;;;;;10.23;7.23;;;10.60;99.90;;;;;;5019292;28;20177;-72
2021/05/18 01:10:16;;;;;;;12.63;7.43;;;10.60;99.90;;;;;;5019418;28;20456;-72
2021/05/18 01:12:42;;;;;;;15.20;7.70;;;10.70;99.90;;;;;;5020705;28;20440;-71
2021/05/18 01:15:10;;;;;;;15.37;8.27;;;10.60;99.90;;;;;;5016093;28;20531;-71
2021/05/18 01:17:37;;;;;;;12.10;7.10;;;10.70;99.90;;;;;;5009841;28;20544;-72
2021/05/18 01:20:13;;;;;;;9.53;6.70;;;10.70;99.90;;;;;;5014705;28;20433;-71
2021/05/18 01:22:47;;;;;;;8.53;6.93;;;10.70;99.90;;;;;;5016974;28;20522;-72
2021/05/18 01:25:14;;;;;;;12.60;7.90;;;10.70;99.90;;;;;;5017851;28;20464;-71
2021/05/18 01:27:40;;;;;;;10.40;6.90;;;10.60;99.90;;;;;;5007831;28;20440;-71
2021/05/18 01:30:09;;;;;;;10.70;7.13;;;10.70;99.90;;;;;;5020579;28;20474;-71
2021/05/18 01:32:35;;;;;;;15.07;7.00;;;10.60;99.90;;;;;;5014035;28;20182;-72
2021/05/18 01:35:01;;;;;;;12.07;6.90;;;10.60;99.90;;;;;;5015003;28;20465;-71
2021/05/18 01:37:27;;;;;;;10.70;6.80;;;10.50;99.90;;;;;;5014796;28;20854;-71
2021/05/18 01:45:17;;;;;;;10.60;6.57;;;10.50;99.90;;;;;;5017222;28;20832;-71
2021/05/18 01:48:04;;;;;;;10.70;5.77;;;10.40;99.90;;;;;;5017283;28;20458;-71
2021/05/18 01:50:31;;;;;;;9.40;6.60;;;10.40;99.90;;;;;;5017567;28;20526;-71
2021/05/18 01:52:57;;;;;;;16.17;6.43;;;10.50;99.90;;;;;;5017307;28;20584;-71
2021/05/18 01:55:35;;;;;;;7.33;5.67;;;10.50;99.90;;;;;;5020144;28;20841;-71
2021/05/18 01:58:01;;;;;;;11.70;5.90;;;10.50;99.90;;;;;;5017941;28;20425;-71
2021/05/18 02:00:29;;;;;;;10.43;6.53;;;10.50;99.90;;;;;;5020109;28;20529;-71
2021/05/18 02:02:56;;;;;;;6.73;5.63;;;10.50;99.90;;;;;;5019008;28;20436;-71
2021/05/18 02:05:24;;;;;;;7.67;5.73;;;10.50;99.90;;;;;;5013741;28;20827;-71
2021/05/18 02:07:52;;;;;;;9.80;6.03;;;10.50;99.90;;;;;;5021902;28;20499;-71
2021/05/18 02:10:20;;;;;;;7.90;5.77;;;10.50;99.90;;;;;;5023588;28;20463;-71
2021/05/18 02:12:46;;;;;;;10.03;6.37;;;10.40;99.90;;;;;;5024492;28;20433;-71
2021/05/18 02:15:55;;;;;;;10.17;6.60;;;10.40;99.90;;;;;;5020877;28;20908;-71
2021/05/18 02:26:30;;;;;;;7.80;6.10;;;10.40;99.90;;;;;;5022991;28;20459;-71
2021/05/18 02:28:55;;;;;;;8.07;5.27;;;10.40;99.90;;;;;;5013683;28;20437;-71
2021/05/18 02:31:22;;;;;;;17.37;6.60;;;10.30;99.90;;;;;;5023909;28;20588;-71
2021/05/18 02:33:50;;;;;;;9.70;6.03;;;10.30;99.90;;;;;;5022222;28;20181;-72
2021/05/18 02:36:20;;;;;;;10.43;7.30;;;10.30;99.90;;;;;;5022177;28;20436;-71
2021/05/18 02:38:47;;;;;;;8.47;6.27;;;10.30;99.90;;;;;;5021943;28;20941;-71
2021/05/18 02:41:13;;;;;;;9.90;6.30;;;10.30;99.90;;;;;;5024286;28;20449;-71
2021/05/18 02:43:43;;;;;;;8.10;5.97;;;10.30;99.90;;;;;;5021725;28;20428;-71
2021/05/18 02:49:03;;;;;;;12.73;6.50;;;10.30;99.90;;;;;;5019249;28;20437;-71
2021/05/18 02:51:50;;;;;;;7.97;6.10;;;10.30;99.90;;;;;;5018550;28;20480;-71
2021/05/18 02:54:22;;;;;;;10.70;5.77;;;10.40;99.90;;;;;;5021979;28;20507;-71
2021/05/18 02:56:53;;;;;;;15.80;6.90;;;10.40;99.90;;;;;;5021993;28;20483;-71
2021/05/18 02:59:19;;;;;;;11.20;5.93;;;10.40;99.90;;;;;;5024284;28;20441;-71
2021/05/18 03:01:52;;;;;;;13.00;6.33;;;10.30;99.90;;;;;;5021911;28;20437;-71
2021/05/18 03:04:18;;;;;;;12.80;6.33;;;10.30;99.90;;;;;;5022571;28;20519;-71
2021/05/18 03:06:47;;;;;;;8.73;6.33;;;10.30;99.90;;;;;;5020719;28;20552;-71
2021/05/18 03:09:13;;;;;;;9.00;5.67;;;10.30;99.90;;;;;;5020797;28;20460;-71
2021/05/18 03:11:41;;;;;;;15.63;6.27;;;10.30;99.90;;;;;;5011855;28;20962;-71
2021/05/18 03:14:07;;;;;;;15.10;7.20;;;10.20;99.90;;;;;;5022367;28;20429;-72
2021/05/18 03:16:34;;;;;;;12.00;6.17;;;10.30;99.90;;;;;;5019197;28;20441;-72
2021/05/18 03:19:01;;;;;;;9.17;5.83;;;10.20;99.90;;;;;;5020301;28;20490;-71
2021/05/18 03:21:27;;;;;;;15.30;6.73;;;10.30;99.90;;;;;;5020680;28;20441;-71
2021/05/18 03:23:52;;;;;;;11.30;6.97;;;10.30;99.90;;;;;;5020121;28;20464;-71
2021/05/18 03:26:18;;;;;;;11.70;6.00;;;10.30;99.90;;;;;;5032294;28;20444;-71
2021/05/18 03:28:46;;;;;;;10.77;6.70;;;10.30;99.90;;;;;;5019399;28;20528;-71
2021/05/18 03:34:27;;;;;;;14.83;7.57;;;10.20;99.90;;;;;;5022410;28;20683;-71
2021/05/18 03:36:45;;;;;;;9.40;6.13;;;10.10;99.90;;;;;;5018698;28;20431;-71
2021/05/18 03:39:10;;;;;;;8.00;6.33;;;10.10;99.90;;;;;;5023183;28;20528;-71
2021/05/18 03:41:50;;;;;;;10.40;7.17;;;10.00;99.90;;;;;;5021260;28;20179;-71
2021/05/18 03:44:24;;;;;;;7.57;5.97;;;10.00;99.90;;;;;;5022701;28;20174;-71
2021/05/18 04:03:06;;;;;;;9.73;6.60;;;9.60;99.90;;;;;;5018321;28;20436;-71
2021/05/18 04:19:00;;;;;;;10.73;5.87;;;9.50;99.90;;;;;;5018555;28;20428;-72
2021/05/18 04:38:33;;;;;;;15.20;7.47;;;9.60;99.90;;;;;;5020246;28;20440;-71
2021/05/18 04:59:06;;;;;;;14.37;8.10;;;10.00;99.90;;;;;;5019422;28;20456;-71
2021/05/18 05:06:38;;;;;;;12.77;7.03;;;10.10;99.90;;;;;;5018781;28;20759;-71
2021/05/18 05:14:32;;;;;;;13.00;6.70;;;10.00;99.90;;;;;;5020746;28;20415;-71
2021/05/18 05:16:58;;;;;;;13.70;6.07;;;10.00;99.90;;;;;;5016096;28;20926;-71
2021/05/18 05:19:29;;;;;;;11.83;7.20;;;10.10;99.90;;;;;;5018766;28;20616;-71
2021/05/18 05:21:56;;;;;;;12.13;7.43;;;10.20;99.90;;;;;;5012310;28;20174;-71
2021/05/18 05:24:22;;;;;;;9.00;6.13;;;10.10;99.90;;;;;;5035665;28;20890;-71
2021/05/18 05:26:48;;;;;;;14.20;6.70;;;10.20;99.90;;;;;;5015251;28;21045;-71
2021/05/18 05:29:16;;;;;;;11.43;7.67;;;10.30;99.90;;;;;;5013911;28;20777;-71
2021/05/18 05:31:42;;;;;;;10.13;6.10;;;10.30;99.90;;;;;;5016241;28;20526;-71
2021/05/18 05:34:09;;;;;;;9.50;6.83;;;10.20;99.90;;;;;;5017876;28;20560;-71
2021/05/18 05:36:37;;;;;;;10.83;5.67;;;10.30;99.90;;;;;;5003498;28;20851;-71
2021/05/18 05:39:07;;;;;;;11.63;6.97;;;10.40;99.90;;;;;;5008332;28;20494;-71
2021/05/18 05:41:33;;;;;;;13.77;7.10;;;10.40;99.90;;;;;;5010780;28;21042;-71
2021/05/18 05:43:59;;;;;;;10.33;6.50;;;10.40;99.90;;;;;;5015905;28;20471;-71
2021/05/18 05:46:25;;;;;;;14.73;7.40;;;10.60;99.90;;;;;;5010827;28;20204;-71
2021/05/18 05:48:54;;;;;;;14.93;7.47;;;10.70;99.90;;;;;;5020211;28;20445;-71
2021/05/18 05:51:24;;;;;;;17.20;7.80;;;10.80;99.90;;;;;;5017530;28;20285;-71
2021/05/18 05:53:51;;;;;;;7.73;6.90;;;10.90;99.90;;;;;;5020840;28;20452;-71
2021/05/18 05:56:17;;;;;;;19.73;6.70;;;11.00;99.90;;;;;;5012699;28;20420;-71
2021/05/18 05:58:44;;;;;;;12.90;7.33;;;11.00;99.90;;;;;;5018498;28;20498;-71
2021/05/18 06:01:10;;;;;;;13.73;7.73;;;11.00;99.90;;;;;;5019862;28;20440;-71
2021/05/18 06:03:35;;;;;;;13.03;7.10;;;11.10;99.90;;;;;;5020340;28;20890;-71
2021/05/18 06:06:01;;;;;;;10.00;6.20;;;11.30;99.90;;;;;;5015065;28;20532;-71
2021/05/18 06:08:27;;;;;;;14.10;6.33;;;11.40;99.90;;;;;;5011427;28;20185;-71
2021/05/18 06:11:04;;;;;;;11.77;6.83;;;11.60;99.90;;;;;;5020666;28;20690;-71
2021/05/18 06:48:39;;;;;;;11.80;6.77;;;11.60;99.90;;;;;;5017893;28;20925;-71
2021/05/18 06:51:05;;;;;;;11.60;7.47;;;11.70;99.90;;;;;;5018104;28;20488;-71
2021/05/18 06:53:31;;;;;;;13.10;8.33;;;11.60;99.90;;;;;;5018897;28;20471;-71
2021/05/18 06:55:58;;;;;;;8.60;6.20;;;11.70;99.90;;;;;;5017766;28;20183;-71
2021/05/18 07:01:03;;;;;;;10.70;7.77;;;11.80;99.90;;;;;;5018054;28;20436;-71
2021/05/18 07:03:34;;;;;;;16.00;8.00;;;11.80;99.90;;;;;;5022992;28;20846;-71
2021/05/18 07:11:06;;;;;;;12.07;8.97;;;11.90;99.90;;;;;;5022948;28;20980;-71
2021/05/18 07:13:32;;;;;;;12.73;8.27;;;11.90;99.90;;;;;;5025048;28;20173;-71
2021/05/18 07:15:57;;;;;;;13.43;8.57;;;12.00;99.90;;;;;;5007894;28;20199;-71
2021/05/18 07:18:23;;;;;;;10.87;8.13;;;12.00;99.90;;;;;;5008604;28;20189;-71
2021/05/18 07:20:48;;;;;;;13.93;8.03;;;12.10;99.90;;;;;;5017942;28;20197;-72
2021/05/18 07:23:17;;;;;;;12.87;8.50;;;12.20;99.90;;;;;;5017152;28;20636;-71
2021/05/18 07:25:42;;;;;;;12.33;7.30;;;12.50;99.90;;;;;;5020455;28;20193;-71
2021/05/18 07:28:09;;;;;;;7.77;6.60;;;12.60;99.90;;;;;;5020471;28;20428;-72
2021/05/18 07:30:35;;;;;;;8.03;7.23;;;12.70;99.90;;;;;;5018134;28;20310;-72
2021/05/18 07:33:01;;;;;;;8.90;6.50;;;12.70;99.90;;;;;;5017631;28;20437;-71
2021/05/18 07:35:27;;;;;;;9.83;6.80;;;12.70;99.90;;;;;;5019819;28;20439;-71
2021/05/18 07:37:53;;;;;;;7.20;6.20;;;12.70;99.90;;;;;;5019431;28;21066;-71
2021/05/18 07:40:19;;;;;;;12.40;7.60;;;12.60;99.90;;;;;;5017627;28;20553;-72
2021/05/18 07:42:46;;;;;;;7.13;5.60;;;12.80;99.90;;;;;;5016610;28;20194;-71
2021/05/18 07:45:12;;;;;;;9.53;5.20;;;12.70;99.90;;;;;;5020004;28;20480;-71
2021/05/18 07:47:38;;;;;;;8.80;6.90;;;12.70;99.90;;;;;;5019738;28;20445;-71
2021/05/18 07:50:15;;;;;;;8.67;6.40;;;12.70;99.90;;;;;;5017112;28;20748;-72
2021/05/18 08:01:07;;;;;;;6.63;4.83;;;13.20;99.90;;;;;;5019150;28;20483;-72
2021/05/18 08:06:17;;;;;;;6.17;5.57;;;13.10;99.90;;;;;;5017976;28;20436;-72
2021/05/18 08:08:44;;;;;;;5.87;4.70;;;12.90;99.90;;;;;;5011062;28;20437;-71
2021/05/18 08:11:10;;;;;;;8.77;5.03;;;12.90;99.90;;;;;;5020286;28;20200;-72
2021/05/18 08:13:35;;;;;;;6.50;5.30;;;12.80;99.90;;;;;;5018778;28;20433;-72
2021/05/18 10:36:34;;;;;;;4.43;4.03;;;14.70;99.90;;;;;;5021968;28;20440;-71
2021/05/18 10:39:30;;;;;;;4.73;3.43;;;14.60;99.90;;;;;;5019197;28;20457;-71
2021/05/18 10:42:10;;;;;;;2.83;2.60;;;14.30;99.90;;;;;;5002403;28;20503;-71
2021/05/18 10:44:54;;;;;;;4.10;3.80;;;14.50;99.90;;;;;;5014606;28;20830;-71
2021/05/18 10:47:43;;;;;;;3.13;2.93;;;14.70;99.90;;;;;;5010421;28;20442;-71
2021/05/18 10:50:09;;;;;;;4.53;3.83;;;15.00;99.90;;;;;;5016526;28;20437;-70
2021/05/18 10:52:38;;;;;;;3.77;3.47;;;15.20;99.90;;;;;;5019027;28;20429;-71
2021/05/18 10:55:08;;;;;;;4.10;3.80;;;15.20;99.90;;;;;;5021180;28;20431;-70
2021/05/18 10:57:33;;;;;;;4.07;3.77;;;15.20;99.90;;;;;;5014304;28;20427;-70
2021/05/18 11:00:03;;;;;;;5.40;3.67;;;15.10;99.90;;;;;;5013814;28;20444;-74
2021/05/18 11:02:36;;;;;;;5.70;4.23;;;15.10;99.90;;;;;;5018804;28;20166;-72
2021/05/18 11:05:12;;;;;;;3.90;3.60;;;15.00;99.90;;;;;;5014943;28;20424;-73
2021/05/18 11:07:45;;;;;;;12.63;4.83;;;14.90;99.90;;;;;;5022711;28;20757;-73
2021/05/18 11:10:14;;;;;;;3.97;3.67;;;14.70;99.90;;;;;;5023567;28;20425;-72
2021/05/18 11:12:41;;;;;;;4.50;4.10;;;14.70;99.90;;;;;;5014450;28;20413;-73
2021/05/18 11:15:10;;;;;;;4.90;4.47;;;14.80;99.90;;;;;;5025345;28;20414;-73
2021/05/18 11:17:46;;;;;;;4.00;3.70;;;14.80;99.90;;;;;;5021950;28;20429;-73
2021/05/18 11:25:54;;;;;;;4.33;4.00;;;14.70;99.90;;;;;;5020313;28;20448;-73
2021/05/18 11:28:22;;;;;;;5.47;4.97;;;14.70;99.90;;;;;;5024183;28;20887;-72
2021/05/18 11:30:57;;;;;;;5.40;4.20;;;14.60;99.90;;;;;;5031041;28;20574;-72
2021/05/18 11:33:34;;;;;;;5.50;4.50;;;14.60;99.90;;;;;;5023467;28;20420;-72
2021/05/18 11:36:02;;;;;;;3.90;3.60;;;14.70;99.90;;;;;;5038296;28;20437;-73
2021/05/18 11:38:29;;;;;;;3.80;3.50;;;14.80;99.90;;;;;;5021525;28;20436;-73
2021/05/18 11:40:55;;;;;;;3.40;3.10;;;14.80;99.90;;;;;;5023447;28;20951;-75
2021/05/18 11:43:26;;;;;;;9.23;3.87;;;14.70;99.90;;;;;;5023232;28;20416;-72
2021/05/18 11:46:04;;;;;;;3.63;3.23;;;14.70;99.90;;;;;;5021059;28;20769;-74
2021/05/18 11:48:30;;;;;;;3.47;3.17;;;14.70;99.90;;;;;;5023933;28;20567;-74
2021/05/18 11:51:14;;;;;;;4.13;3.83;;;14.90;99.90;;;;;;5023647;28;20547;-72
2021/05/18 11:53:45;;;;;;;3.67;3.47;;;14.80;99.90;;;;;;5024410;28;20554;-73
2021/05/18 11:56:24;;;;;;;3.53;3.30;;;14.80;99.90;;;;;;5018751;28;20925;-73
2021/05/18 11:59:10;;;;;;;3.67;3.47;;;14.90;99.90;;;;;;5020612;28;20417;-72
2021/05/18 12:01:43;;;;;;;3.70;3.40;;;15.10;99.90;;;;;;5019207;28;20446;-72
2021/05/18 12:04:14;;;;;;;5.03;3.40;;;15.20;99.90;;;;;;5011423;28;20421;-72
2021/05/18 12:07:08;;;;;;;3.20;3.00;;;15.20;99.90;;;;;;5007913;28;20424;-71
2021/05/18 12:09:35;;;;;;;3.97;3.13;;;15.30;99.90;;;;;;5018686;28;20467;-71
2021/05/18 12:12:10;;;;;;;5.20;3.10;;;15.20;99.90;;;;;;5021270;28;20546;-71
2021/05/18 12:14:44;;;;;;;4.30;3.87;;;15.40;99.90;;;;;;5022056;28;20711;-71
2021/05/18 12:17:10;;;;;;;2.83;2.63;;;15.60;99.90;;;;;;5019016;28;20447;-71
2021/05/18 12:19:41;;;;;;;4.93;4.43;;;15.80;99.90;;;;;;5023154;28;20417;-71
2021/05/18 12:22:07;;;;;;;6.37;3.90;;;16.10;99.90;;;;;;5021602;28;20438;-71
2021/05/18 12:24:42;;;;;;;4.40;3.40;;;16.10;99.90;;;;;;5019087;28;20498;-70
2021/05/18 12:27:10;;;;;;;3.63;3.33;;;16.10;99.90;;;;;;5021573;28;20432;-71
2021/05/18 12:29:40;;;;;;;4.43;3.67;;;16.30;99.90;;;;;;5024249;28;20412;-71
2021/05/18 12:32:19;;;;;;;4.00;3.70;;;16.50;99.90;;;;;;5017646;28;20487;-71
2021/05/18 12:34:47;;;;;;;3.97;3.40;;;16.40;99.90;;;;;;5006433;28;20439;-71
2021/05/18 12:37:14;;;;;;;3.50;3.20;;;16.40;99.90;;;;;;5012889;28;20433;-71
2021/05/18 12:39:43;;;;;;;2.80;2.60;;;16.90;99.90;;;;;;5021083;28;20466;-71
2021/05/18 12:42:15;;;;;;;3.67;3.47;;;17.20;99.90;;;;;;5024127;28;20434;-71
2021/05/18 12:44:53;;;;;;;3.50;3.27;;;17.40;99.90;;;;;;5010762;28;20443;-71
2021/05/18 12:47:31;;;;;;;2.90;2.70;;;17.50;99.90;;;;;;5016870;28;20519;-72
2021/05/18 12:49:57;;;;;;;4.90;3.10;;;18.00;99.90;;;;;;5013052;28;20825;-71
2021/05/18 12:52:32;;;;;;;3.27;2.97;;;18.10;99.90;;;;;;5012243;28;20464;-72
2021/05/18 12:54:58;;;;;;;2.77;2.13;;;18.00;99.90;;;;;;5011981;28;20421;-71
2021/05/18 12:57:26;;;;;;;2.50;2.30;;;18.30;99.90;;;;;;5017722;28;20770;-71
2021/05/18 12:59:56;;;;;;;3.13;2.83;;;18.30;99.90;;;;;;5022257;28;20170;-71
2021/05/18 13:02:43;;;;;;;3.47;2.77;;;18.10;99.90;;;;;;5011373;28;20520;-72
2021/05/18 13:05:27;;;;;;;2.70;2.50;;;18.60;99.90;;;;;;5017159;28;20444;-72
2021/05/18 13:08:06;;;;;;;3.33;2.77;;;18.80;99.90;;;;;;5018976;28;20444;-71
2021/05/18 13:11:05;;;;;;;2.67;2.57;;;19.00;99.90;;;;;;5022568;28;20453;-72
2021/05/18 13:13:37;;;;;;;2.70;2.50;;;18.60;99.90;;;;;;5012997;28;20944;-71
2021/05/18 13:16:15;;;;;;;3.07;2.50;;;18.00;99.90;;;;;;5027358;28;20445;-71
2021/05/18 13:19:02;;;;;;;1.93;1.83;;;17.70;99.90;;;;;;5021484;28;20864;-71
2021/05/18 13:21:49;;;;;;;2.60;2.33;;;16.60;99.90;;;;;;5012836;28;20472;-72
2021/05/18 13:26:41;;;;;;;1.90;1.80;;;15.80;99.90;;;;;;5018571;28;20436;-72
2021/05/18 13:29:12;;;;;;;3.00;2.00;;;15.70;99.90;;;;;;5016884;28;20193;-73
2021/05/18 13:31:38;;;;;;;1.80;1.70;;;15.80;99.90;;;;;;5017760;28;20463;-72
2021/05/18 13:34:06;;;;;;;1.40;1.30;;;15.90;99.90;;;;;;5012593;28;20436;-72
2021/05/18 13:36:33;;;;;;;1.67;1.57;;;15.90;99.90;;;;;;5013381;28;20433;-72
2021/05/18 13:39:01;;;;;;;1.70;1.53;;;16.10;99.90;;;;;;5017392;28;20921;-72
2021/05/18 13:41:27;;;;;;;1.80;1.70;;;16.10;99.90;;;;;;5015910;28;20436;-72
2021/05/18 13:43:53;;;;;;;1.57;1.47;;;16.20;99.90;;;;;;5019668;28;20433;-72
2021/05/18 13:46:19;;;;;;;1.50;1.40;;;16.40;99.90;;;;;;5017461;28;20444;-71
2021/05/18 13:48:44;;;;;;;1.70;1.60;;;16.40;99.90;;;;;;5014365;28;20521;-72
2021/05/18 13:51:14;;;;;;;1.70;1.60;;;16.50;99.90;;;;;;5016900;28;20868;-71
2021/05/18 13:53:41;;;;;;;1.77;1.30;;;16.90;99.90;;;;;;5013451;28;20175;-72
2021/05/18 13:56:07;;;;;;;1.00;1.00;;;17.30;99.90;;;;;;5003269;28;20434;-72
2021/05/18 13:58:33;;;;;;;1.00;0.90;;;17.80;99.90;;;;;;5031587;28;20461;-72
2021/05/18 14:00:59;;;;;;;0.70;0.70;;;18.30;99.90;;;;;;5016832;28;20444;-72
2021/05/18 14:03:24;;;;;;;1.23;1.23;;;18.40;99.90;;;;;;5013520;28;20194;-72
2021/05/18 14:05:50;;;;;;;1.00;1.00;;;18.20;99.90;;;;;;5015084;28;20189;-72
2021/05/18 14:08:36;;;;;;;1.07;0.93;;;17.90;99.90;;;;;;5013269;28;20197;-72
2021/05/18 14:11:09;;;;;;;0.80;0.80;;;17.50;99.90;;;;;;5015012;28;20194;-72
2021/05/18 14:13:38;;;;;;;0.90;0.90;;;17.30;99.90;;;;;;5009586;28;20444;-72
2021/05/18 14:16:04;;;;;;;1.10;1.10;;;17.10;99.90;;;;;;5014172;28;20473;-71
2021/05/18 14:18:32;;;;;;;0.90;0.90;;;17.10;99.90;;;;;;5008910;28;20437;-72
2021/05/18 14:20:58;;;;;;;1.10;1.00;;;17.10;99.90;;;;;;5012223;28;20502;-71
2021/05/18 14:23:26;;;;;;;1.00;1.00;;;17.00;99.90;;;;;;5013575;28;20471;-71
2021/05/18 14:25:53;;;;;;;1.00;1.00;;;17.10;99.90;;;;;;5014769;28;20440;-71
2021/05/18 14:28:20;;;;;;;1.87;1.53;;;17.30;99.90;;;;;;5015892;28;20456;-71
2021/05/18 14:30:46;;;;;;;1.33;1.23;;;17.50;99.90;;;;;;5017180;28;20579;-71
2021/05/18 14:33:12;;;;;;;1.93;1.60;;;18.10;99.90;;;;;;5012323;28;20520;-72
2021/05/18 14:35:38;;;;;;;1.00;1.00;;;18.70;99.90;;;;;;5010137;28;20261;-71
2021/05/18 14:38:09;;;;;;;1.20;1.10;;;18.70;99.90;;;;;;5007514;28;20746;-72
2021/05/18 14:46:02;;;;;;;1.23;1.23;;;19.60;99.90;;;;;;5008684;28;21064;-72
2021/05/18 14:53:48;;;;;;;1.37;1.27;;;19.30;99.90;;;;;;5013924;28;20433;-71
2021/05/18 14:56:15;;;;;;;1.10;1.10;;;18.90;99.90;;;;;;5015674;28;20516;-71
2021/05/18 14:58:41;;;;;;;1.43;1.33;;;18.30;99.90;;;;;;5019261;28;20436;-71
2021/05/18 15:01:07;;;;;;;1.57;1.47;;;17.70;99.90;;;;;;5016751;28;20443;-71
2021/05/18 15:03:34;;;;;;;1.50;1.40;;;17.20;99.90;;;;;;5014374;28;20222;-71
2021/05/18 15:06:00;;;;;;;1.20;1.20;;;17.10;99.90;;;;;;5015544;28;20285;-71
2021/05/18 15:08:27;;;;;;;1.30;1.30;;;17.00;99.90;;;;;;5013935;28;20429;-71
2021/05/18 15:10:57;;;;;;;1.57;1.47;;;17.10;99.90;;;;;;5015014;28;20471;-70
2021/05/18 15:13:23;;;;;;;1.40;1.30;;;16.90;99.90;;;;;;5007665;28;20422;-71
2021/05/18 15:15:49;;;;;;;1.60;1.50;;;16.70;99.90;;;;;;5021063;28;20440;-70
2021/05/18 15:18:16;;;;;;;2.10;1.30;;;16.50;99.90;;;;;;5018134;28;20447;-70
2021/05/18 15:20:42;;;;;;;1.27;1.13;;;16.40;99.90;;;;;;5019029;28;20900;-71
2021/05/18 15:23:08;;;;;;;1.50;1.40;;;16.40;99.90;;;;;;5020682;28;20527;-71
2021/05/18 15:25:33;;;;;;;1.47;1.47;;;16.40;99.90;;;;;;5021735;28;20643;-71
2021/05/18 15:27:59;;;;;;;1.20;1.20;;;16.40;99.90;;;;;;5022225;28;20576;-71
2021/05/18 15:30:25;;;;;;;1.10;1.10;;;16.30;99.90;;;;;;5039909;28;20185;-72
2021/05/18 15:32:51;;;;;;;1.27;1.27;;;16.30;99.90;;;;;;5023163;28;20182;-72
2021/05/18 15:35:16;;;;;;;1.47;1.37;;;16.20;99.90;;;;;;5015509;28;20421;-71
2021/05/18 15:37:43;;;;;;;1.80;1.70;;;16.10;99.90;;;;;;5020941;28;20197;-71
2021/05/18 15:40:09;;;;;;;10.60;2.90;;;16.00;99.90;;;;;;5022957;28;20557;-71
2021/05/18 15:42:36;;;;;;;2.63;2.43;;;15.60;99.90;;;;;;5024701;28;20427;-71
2021/05/18 15:45:03;;;;;;;4.00;2.10;;;15.30;99.90;;;;;;5021163;28;20440;-71
2021/05/18 15:47:29;;;;;;;2.67;2.30;;;15.40;99.90;;;;;;5022310;28;20769;-71
2021/05/18 15:49:54;;;;;;;2.60;2.43;;;15.40;99.90;;;;;;5023552;28;20453;-71
2021/05/18 15:52:20;;;;;;;3.40;3.10;;;15.30;99.90;;;;;;5022670;28;20701;-71
2021/05/18 15:54:46;;;;;;;2.57;2.37;;;15.20;99.90;;;;;;5024598;28;20623;-71
2021/05/18 15:57:12;;;;;;;3.13;2.93;;;15.10;99.90;;;;;;5020083;28;20529;-71
2021/05/18 15:59:37;;;;;;;3.20;3.00;;;15.10;99.90;;;;;;5021721;28;20185;-71
2021/05/18 16:02:03;;;;;;;7.43;2.80;;;15.10;99.90;;;;;;5022411;28;20437;-71
2021/05/18 16:04:29;;;;;;;5.10;2.50;;;15.00;99.90;;;;;;5024038;28;20485;-70
2021/05/18 16:06:56;;;;;;;3.27;2.97;;;14.90;99.90;;;;;;5011896;28;20178;-71
2021/05/18 16:09:22;;;;;;;3.00;2.67;;;14.80;99.90;;;;;;5012854;28;20501;-71
2021/05/18 16:11:48;;;;;;;2.00;1.90;;;14.60;99.90;;;;;;5017313;28;21398;-71
2021/05/18 16:14:14;;;;;;;2.60;2.50;;;14.60;99.90;;;;;;5021658;28;20187;-71
2021/05/18 16:16:39;;;;;;;2.93;2.73;;;14.60;99.90;;;;;;5014622;28;20430;-71
2021/05/18 16:19:05;;;;;;;2.47;2.33;;;14.60;99.90;;;;;;5021969;28;20185;-71
2021/05/18 16:21:33;;;;;;;2.70;2.50;;;14.70;99.90;;;;;;5023007;28;20190;-71
2021/05/18 16:23:59;;;;;;;3.13;2.33;;;14.70;99.90;;;;;;5021790;28;20494;-71
2021/05/18 16:26:29;;;;;;;2.90;2.80;;;14.70;99.90;;;;;;5019654;28;20832;-71
2021/05/18 16:28:55;;;;;;;2.23;2.13;;;14.60;99.90;;;;;;5023612;28;20500;-71
2021/05/18 16:31:23;;;;;;;2.47;2.30;;;14.70;99.90;;;;;;5013260;28;20464;-71
2021/05/18 16:33:49;;;;;;;3.03;2.13;;;14.80;99.90;;;;;;5023303;28;21167;-71
2021/05/18 16:36:16;;;;;;;2.10;2.00;;;14.60;99.90;;;;;;5019379;28;20896;-71
2021/05/18 16:38:42;;;;;;;2.30;2.10;;;14.70;99.90;;;;;;5017567;28;20798;-71
2021/05/18 16:41:09;;;;;;;1.80;1.70;;;14.90;99.90;;;;;;5028567;28;20442;-71
2021/05/18 16:43:35;;;;;;;2.00;1.90;;;15.30;99.90;;;;;;5021365;28;20437;-71
2021/05/18 16:46:03;;;;;;;2.30;2.20;;;15.60;99.90;;;;;;5019744;28;20930;-71
2021/05/18 16:48:29;;;;;;;2.60;2.30;;;15.80;99.90;;;;;;5019044;28;20481;-71
2021/05/18 16:51:00;;;;;;;2.30;2.20;;;15.60;99.90;;;;;;5016853;28;21678;-71
2021/05/18 16:53:26;;;;;;;2.53;2.33;;;15.50;99.90;;;;;;5017241;28;20520;-71
2021/05/18 16:55:52;;;;;;;2.13;2.03;;;15.70;99.90;;;;;;5018093;28;20430;-71
2021/05/18 16:58:18;;;;;;;3.33;2.63;;;16.10;99.90;;;;;;5021812;28;20429;-71
2021/05/18 17:00:45;;;;;;;2.80;2.60;;;16.30;99.90;;;;;;5005473;28;20437;-72
2021/05/18 17:03:10;;;;;;;2.63;2.43;;;16.70;99.90;;;;;;5002600;28;20536;-78
2021/05/18 17:05:36;;;;;;;2.43;2.30;;;17.10;99.90;;;;;;5012314;28;20560;-72
2021/05/18 17:08:05;;;;;;;4.23;2.67;;;17.40;99.90;;;;;;5012800;28;20240;-73
2021/05/18 17:10:33;;;;;;;2.27;2.17;;;17.30;99.90;;;;;;5013269;28;20266;-73
2021/05/18 17:12:59;;;;;;;2.83;2.63;;;17.00;99.90;;;;;;5017503;28;20433;-74
2021/05/18 17:15:26;;;;;;;3.27;2.80;;;17.00;99.90;;;;;;5017944;28;20772;-73
2021/05/18 17:17:52;;;;;;;2.80;2.60;;;16.90;99.90;;;;;;5009890;28;20433;-73
2021/05/18 17:20:18;;;;;;;2.70;2.50;;;16.90;99.90;;;;;;5015660;28;20653;-73
2021/05/18 17:22:44;;;;;;;2.30;2.20;;;16.90;99.90;;;;;;5019089;28;20762;-73
2021/05/18 17:25:10;;;;;;;2.73;2.53;;;16.80;99.90;;;;;;5016449;28;21055;-74
2021/05/18 17:27:37;;;;;;;2.50;2.40;;;16.90;99.90;;;;;;5013023;28;20224;-73
2021/05/18 17:30:05;;;;;;;2.10;2.00;;;17.10;99.90;;;;;;5017131;28;20529;-73
2021/05/18 17:32:31;;;;;;;2.50;2.30;;;17.20;99.90;;;;;;5016846;28;20452;-73
2021/05/18 17:34:57;;;;;;;2.00;1.90;;;17.50;99.90;;;;;;5012834;28;20444;-73
2021/05/18 17:37:22;;;;;;;2.20;2.10;;;17.80;99.90;;;;;;5012297;28;20720;-73
2021/05/18 17:39:48;;;;;;;1.80;1.70;;;17.90;99.90;;;;;;5019208;28;20221;-73
2021/05/18 17:42:15;;;;;;;1.83;1.73;;;18.10;99.90;;;;;;5018580;28;21046;-73
2021/05/18 17:44:41;;;;;;;2.10;2.00;;;17.90;99.90;;;;;;5021184;28;20183;-73
2021/05/18 17:47:07;;;;;;;1.77;1.67;;;17.50;99.90;;;;;;5013723;28;20459;-73
2021/05/18 17:49:33;;;;;;;3.00;1.67;;;17.00;99.90;;;;;;5014504;28;20917;-73
2021/05/18 17:52:00;;;;;;;1.83;1.73;;;16.50;99.90;;;;;;5013094;28;20197;-74
2021/05/18 17:54:26;;;;;;;2.10;2.00;;;16.00;99.90;;;;;;5022123;28;20267;-73
2021/05/18 17:56:52;;;;;;;1.90;1.80;;;15.70;99.90;;;;;;5011082;28;20458;-72
2021/05/18 17:59:18;;;;;;;2.30;2.10;;;15.50;99.90;;;;;;5013552;28;20186;-73
2021/05/18 18:01:45;;;;;;;1.90;1.80;;;15.30;99.90;;;;;;5018127;28;20468;-72
2021/05/18 18:04:10;;;;;;;1.70;1.60;;;15.20;99.90;;;;;;5014589;28;20623;-71